sensor_id;sensor_type;location;lat;lon;timestamp;temperature;humidity
7970;DHT22;4030;52.362;9.206;2022-09-30T00:01:47;15.10;54.80
7970;DHT22;4030;52.362;9.206;2022-09-30T00:04:20;15.20;54.90
7970;DHT22;4030;52.362;9.206;2022-09-30T00:06:48;15.20;55.00
7970;DHT22;4030;52.362;9.206;2022-09-30T00:09:14;15.10;55.00
7970;DHT22;4030;52.362;9.206;2022-09-30T00:11:41;14.90;55.00
7970;DHT22;4030;52.362;9.206;2022-09-30T00:14:11;15.00;55.00
7970;DHT22;4030;52.362;9.206;2022-09-30T00:16:40;14.90;55.00
7970;DHT22;4030;52.362;9.206;2022-09-30T00:19:05;15.10;55.20
7970;DHT22;4030;52.362;9.206;2022-09-30T00:21:32;14.80;55.00
7970;DHT22;4030;52.362;9.206;2022-09-30T00:23:59;14.90;55.10
7970;DHT22;4030;52.362;9.206;2022-09-30T00:26:25;14.90;55.20
7970;DHT22;4030;52.362;9.206;2022-09-30T00:28:53;14.90;55.20
7970;DHT22;4030;52.362;9.206;2022-09-30T00:31:22;14.70;55.10
7970;DHT22;4030;52.362;9.206;2022-09-30T00:33:49;14.70;55.10
7970;DHT22;4030;52.362;9.206;2022-09-30T00:36:49;14.80;55.20
7970;DHT22;4030;52.362;9.206;2022-09-30T00:42:03;14.70;55.10
7970;DHT22;4030;52.362;9.206;2022-09-30T00:44:54;14.70;55.20
7970;DHT22;4030;52.362;9.206;2022-09-30T00:47:44;14.70;55.30
7970;DHT22;4030;52.362;9.206;2022-09-30T00:50:36;14.70;55.30
7970;DHT22;4030;52.362;9.206;2022-09-30T00:53:18;14.60;55.20
7970;DHT22;4030;52.362;9.206;2022-09-30T00:58:30;14.50;55.10
7970;DHT22;4030;52.362;9.206;2022-09-30T01:01:00;14.50;55.10
7970;DHT22;4030;52.362;9.206;2022-09-30T01:03:33;14.80;55.30
7970;DHT22;4030;52.362;9.206;2022-09-30T01:06:01;14.70;55.30
7970;DHT22;4030;52.362;9.206;2022-09-30T01:08:30;14.70;55.40
7970;DHT22;4030;52.362;9.206;2022-09-30T01:10:57;14.80;55.50
7970;DHT22;4030;52.362;9.206;2022-09-30T01:13:24;14.50;55.30
7970;DHT22;4030;52.362;9.206;2022-09-30T01:16:28;14.50;55.30
7970;DHT22;4030;52.362;9.206;2022-09-30T01:31:10;14.20;55.60
7970;DHT22;4030;52.362;9.206;2022-09-30T01:44:47;14.10;55.60
7970;DHT22;4030;52.362;9.206;2022-09-30T01:47:28;13.90;55.60
7970;DHT22;4030;52.362;9.206;2022-09-30T01:50:08;13.80;55.50
7970;DHT22;4030;52.362;9.206;2022-09-30T01:55:24;14.00;55.70
7970;DHT22;4030;52.362;9.206;2022-09-30T02:00:33;14.00;55.80
7970;DHT22;4030;52.362;9.206;2022-09-30T02:03:08;13.80;55.60
7970;DHT22;4030;52.362;9.206;2022-09-30T02:06:01;13.90;55.70
7970;DHT22;4030;52.362;9.206;2022-09-30T02:11:28;13.70;55.70
7970;DHT22;4030;52.362;9.206;2022-09-30T02:14:15;13.80;55.70
7970;DHT22;4030;52.362;9.206;2022-09-30T02:16:51;13.60;55.70
7970;DHT22;4030;52.362;9.206;2022-09-30T02:19:29;13.70;55.70
7970;DHT22;4030;52.362;9.206;2022-09-30T02:22:19;13.60;55.70
7970;DHT22;4030;52.362;9.206;2022-09-30T02:24:50;13.60;55.70
7970;DHT22;4030;52.362;9.206;2022-09-30T02:27:22;13.60;55.70
7970;DHT22;4030;52.362;9.206;2022-09-30T02:29:55;13.50;55.70
7970;DHT22;4030;52.362;9.206;2022-09-30T02:32:34;13.60;55.90
7970;DHT22;4030;52.362;9.206;2022-09-30T02:35:28;13.40;55.70
7970;DHT22;4030;52.362;9.206;2022-09-30T02:38:14;13.40;55.60
7970;DHT22;4030;52.362;9.206;2022-09-30T02:40:49;13.50;55.60
7970;DHT22;4030;52.362;9.206;2022-09-30T02:43:18;13.50;55.60
7970;DHT22;4030;52.362;9.206;2022-09-30T02:45:50;13.50;55.80
7970;DHT22;4030;52.362;9.206;2022-09-30T02:48:57;13.40;55.60
7970;DHT22;4030;52.362;9.206;2022-09-30T02:51:55;13.40;55.60
7970;DHT22;4030;52.362;9.206;2022-09-30T02:56:53;13.20;55.50
7970;DHT22;4030;52.362;9.206;2022-09-30T02:59:24;13.50;55.90
7970;DHT22;4030;52.362;9.206;2022-09-30T03:01:50;13.40;55.80
7970;DHT22;4030;52.362;9.206;2022-09-30T03:04:20;13.30;55.70
7970;DHT22;4030;52.362;9.206;2022-09-30T03:14:33;13.00;55.50
7970;DHT22;4030;52.362;9.206;2022-09-30T03:20:13;13.00;55.60
7970;DHT22;4030;52.362;9.206;2022-09-30T03:34:30;12.90;55.70
7970;DHT22;4030;52.362;9.206;2022-09-30T03:37:22;12.90;55.70
7970;DHT22;4030;52.362;9.206;2022-09-30T03:40:22;12.90;55.70
7970;DHT22;4030;52.362;9.206;2022-09-30T03:42:59;13.00;55.80
7970;DHT22;4030;52.362;9.206;2022-09-30T03:45:36;12.80;55.60
7970;DHT22;4030;52.362;9.206;2022-09-30T03:48:07;12.70;55.60
7970;DHT22;4030;52.362;9.206;2022-09-30T03:50:36;12.80;55.60
7970;DHT22;4030;52.362;9.206;2022-09-30T03:53:03;12.70;55.70
7970;DHT22;4030;52.362;9.206;2022-09-30T03:55:46;12.70;55.60
7970;DHT22;4030;52.362;9.206;2022-09-30T03:58:18;12.50;55.50
7970;DHT22;4030;52.362;9.206;2022-09-30T04:00:52;12.80;55.80
7970;DHT22;4030;52.362;9.206;2022-09-30T04:03:19;12.60;55.70
7970;DHT22;4030;52.362;9.206;2022-09-30T04:05:46;12.60;55.60
7970;DHT22;4030;52.362;9.206;2022-09-30T04:08:13;12.80;55.80
7970;DHT22;4030;52.362;9.206;2022-09-30T04:10:42;12.60;55.70
7970;DHT22;4030;52.362;9.206;2022-09-30T04:13:09;12.50;55.60
7970;DHT22;4030;52.362;9.206;2022-09-30T04:15:36;12.60;55.70
7970;DHT22;4030;52.362;9.206;2022-09-30T04:18:03;12.50;55.50
7970;DHT22;4030;52.362;9.206;2022-09-30T04:20:30;12.40;55.50
7970;DHT22;4030;52.362;9.206;2022-09-30T04:22:57;12.40;55.50
7970;DHT22;4030;52.362;9.206;2022-09-30T04:25:24;12.60;55.60
7970;DHT22;4030;52.362;9.206;2022-09-30T04:27:50;12.50;55.60
7970;DHT22;4030;52.362;9.206;2022-09-30T04:30:16;12.40;55.60
7970;DHT22;4030;52.362;9.206;2022-09-30T04:32:43;12.30;55.50
7970;DHT22;4030;52.362;9.206;2022-09-30T04:35:12;12.30;55.50
7970;DHT22;4030;52.362;9.206;2022-09-30T04:37:45;12.40;55.60
7970;DHT22;4030;52.362;9.206;2022-09-30T04:40:12;12.30;55.60
7970;DHT22;4030;52.362;9.206;2022-09-30T04:42:39;12.30;55.40
7970;DHT22;4030;52.362;9.206;2022-09-30T04:45:08;12.30;55.50
7970;DHT22;4030;52.362;9.206;2022-09-30T04:47:35;12.20;55.40
7970;DHT22;4030;52.362;9.206;2022-09-30T04:50:01;12.30;55.60
7970;DHT22;4030;52.362;9.206;2022-09-30T04:57:19;12.20;55.40
7970;DHT22;4030;52.362;9.206;2022-09-30T05:04:38;12.10;55.50
7970;DHT22;4030;52.362;9.206;2022-09-30T05:07:04;12.10;55.50
7970;DHT22;4030;52.362;9.206;2022-09-30T05:09:33;12.10;55.40
7970;DHT22;4030;52.362;9.206;2022-09-30T05:16:54;11.90;55.30
7970;DHT22;4030;52.362;9.206;2022-09-30T05:19:19;12.00;55.40
7970;DHT22;4030;52.362;9.206;2022-09-30T05:24:12;11.90;55.40
7970;DHT22;4030;52.362;9.206;2022-09-30T05:29:05;11.80;55.30
7970;DHT22;4030;52.362;9.206;2022-09-30T05:31:32;11.90;55.30
7970;DHT22;4030;52.362;9.206;2022-09-30T05:33:58;11.90;55.40
7970;DHT22;4030;52.362;9.206;2022-09-30T05:38:50;11.80;55.30
7970;DHT22;4030;52.362;9.206;2022-09-30T05:41:16;12.00;55.50
7970;DHT22;4030;52.362;9.206;2022-09-30T05:46:12;11.90;55.30
7970;DHT22;4030;52.362;9.206;2022-09-30T05:48:38;11.80;55.20
7970;DHT22;4030;52.362;9.206;2022-09-30T05:53:31;11.90;55.30
7970;DHT22;4030;52.362;9.206;2022-09-30T05:55:57;11.90;55.30
7970;DHT22;4030;52.362;9.206;2022-09-30T05:58:23;11.70;55.10
7970;DHT22;4030;52.362;9.206;2022-09-30T06:00:49;11.90;55.20
7970;DHT22;4030;52.362;9.206;2022-09-30T06:03:16;11.90;55.20
7970;DHT22;4030;52.362;9.206;2022-09-30T06:08:12;12.10;55.30
7970;DHT22;4030;52.362;9.206;2022-09-30T06:10:43;12.00;55.10
7970;DHT22;4030;52.362;9.206;2022-09-30T06:13:09;12.00;55.00
7970;DHT22;4030;52.362;9.206;2022-09-30T06:15:35;12.10;55.20
7970;DHT22;4030;52.362;9.206;2022-09-30T06:18:04;12.10;55.10
7970;DHT22;4030;52.362;9.206;2022-09-30T06:20:30;12.10;55.20
7970;DHT22;4030;52.362;9.206;2022-09-30T06:22:58;12.30;55.30
7970;DHT22;4030;52.362;9.206;2022-09-30T06:25:25;12.00;55.10
7970;DHT22;4030;52.362;9.206;2022-09-30T06:27:52;12.00;55.10
7970;DHT22;4030;52.362;9.206;2022-09-30T06:30:18;12.20;55.30
7970;DHT22;4030;52.362;9.206;2022-09-30T06:32:44;12.30;55.40
7970;DHT22;4030;52.362;9.206;2022-09-30T06:35:10;12.30;55.30
7970;DHT22;4030;52.362;9.206;2022-09-30T06:37:36;12.20;55.20
7970;DHT22;4030;52.362;9.206;2022-09-30T06:40:04;12.20;55.30
7970;DHT22;4030;52.362;9.206;2022-09-30T06:42:30;12.20;55.30
7970;DHT22;4030;52.362;9.206;2022-09-30T06:44:56;12.20;55.30
7970;DHT22;4030;52.362;9.206;2022-09-30T06:47:22;12.40;55.40
7970;DHT22;4030;52.362;9.206;2022-09-30T06:52:15;12.40;55.50
7970;DHT22;4030;52.362;9.206;2022-09-30T06:54:40;12.70;55.80
7970;DHT22;4030;52.362;9.206;2022-09-30T06:57:07;12.40;55.60
7970;DHT22;4030;52.362;9.206;2022-09-30T06:59:32;12.50;55.70
7970;DHT22;4030;52.362;9.206;2022-09-30T07:09:19;12.70;55.80
7970;DHT22;4030;52.362;9.206;2022-09-30T07:11:44;12.80;55.80
7970;DHT22;4030;52.362;9.206;2022-09-30T07:16:37;13.00;55.90
7970;DHT22;4030;52.362;9.206;2022-09-30T07:19:04;13.10;56.00
7970;DHT22;4030;52.362;9.206;2022-09-30T07:21:31;13.30;56.10
7970;DHT22;4030;52.362;9.206;2022-09-30T07:23:58;13.30;56.10
7970;DHT22;4030;52.362;9.206;2022-09-30T07:26:25;13.40;56.10
7970;DHT22;4030;52.362;9.206;2022-09-30T07:28:52;13.50;56.10
7970;DHT22;4030;52.362;9.206;2022-09-30T07:31:21;13.50;56.00
7970;DHT22;4030;52.362;9.206;2022-09-30T07:33:48;13.70;56.00
7970;DHT22;4030;52.362;9.206;2022-09-30T07:36:17;13.90;56.00
7970;DHT22;4030;52.362;9.206;2022-09-30T07:38:45;14.00;55.90
7970;DHT22;4030;52.362;9.206;2022-09-30T07:41:19;14.10;55.90
7970;DHT22;4030;52.362;9.206;2022-09-30T07:43:48;14.20;55.70
7970;DHT22;4030;52.362;9.206;2022-09-30T07:46:18;14.40;55.80
7970;DHT22;4030;52.362;9.206;2022-09-30T07:48:46;14.40;55.60
7970;DHT22;4030;52.362;9.206;2022-09-30T07:51:24;14.40;55.60
7970;DHT22;4030;52.362;9.206;2022-09-30T07:54:01;14.80;55.70
7970;DHT22;4030;52.362;9.206;2022-09-30T07:56:34;14.80;55.60
7970;DHT22;4030;52.362;9.206;2022-09-30T07:59:03;14.90;55.60
7970;DHT22;4030;52.362;9.206;2022-09-30T08:01:30;15.20;55.70
7970;DHT22;4030;52.362;9.206;2022-09-30T08:03:59;15.20;55.60
7970;DHT22;4030;52.362;9.206;2022-09-30T08:06:28;15.30;55.70
7970;DHT22;4030;52.362;9.206;2022-09-30T08:08:55;15.40;55.80
7970;DHT22;4030;52.362;9.206;2022-09-30T08:11:22;15.50;56.00
7970;DHT22;4030;52.362;9.206;2022-09-30T08:13:53;15.80;56.40
7970;DHT22;4030;52.362;9.206;2022-09-30T08:16:21;15.80;56.30
7970;DHT22;4030;52.362;9.206;2022-09-30T08:18:48;16.20;56.60
7970;DHT22;4030;52.362;9.206;2022-09-30T08:21:13;16.20;56.50
7970;DHT22;4030;52.362;9.206;2022-09-30T08:23:40;16.40;56.90
7970;DHT22;4030;52.362;9.206;2022-09-30T08:26:08;16.40;56.80
7970;DHT22;4030;52.362;9.206;2022-09-30T08:28:36;16.50;56.70
7970;DHT22;4030;52.362;9.206;2022-09-30T08:31:20;16.80;56.70
7970;DHT22;4030;52.362;9.206;2022-09-30T08:33:47;17.00;56.60
7970;DHT22;4030;52.362;9.206;2022-09-30T08:36:19;17.10;56.50
7970;DHT22;4030;52.362;9.206;2022-09-30T08:38:46;17.20;56.30
7970;DHT22;4030;52.362;9.206;2022-09-30T08:49:19;18.10;55.80
7970;DHT22;4030;52.362;9.206;2022-09-30T08:52:04;18.30;55.60
7970;DHT22;4030;52.362;9.206;2022-09-30T08:54:38;18.60;55.40
7970;DHT22;4030;52.362;9.206;2022-09-30T08:57:06;18.70;55.00
7970;DHT22;4030;52.362;9.206;2022-09-30T08:59:43;19.00;54.70
7970;DHT22;4030;52.362;9.206;2022-09-30T09:02:23;19.00;53.70
7970;DHT22;4030;52.362;9.206;2022-09-30T09:04:53;19.10;52.90
7970;DHT22;4030;52.362;9.206;2022-09-30T09:16:15;19.60;51.90
7970;DHT22;4030;52.362;9.206;2022-09-30T09:19:01;19.70;51.40
7970;DHT22;4030;52.362;9.206;2022-09-30T09:24:17;20.00;50.70
7970;DHT22;4030;52.362;9.206;2022-09-30T09:32:12;20.40;49.80
7970;DHT22;4030;52.362;9.206;2022-09-30T09:34:41;20.60;50.80
7970;DHT22;4030;52.362;9.206;2022-09-30T09:37:47;20.60;51.10
7970;DHT22;4030;52.362;9.206;2022-09-30T09:40:37;21.00;50.70
7970;DHT22;4030;52.362;9.206;2022-09-30T09:51:47;22.20;50.30
7970;DHT22;4030;52.362;9.206;2022-09-30T09:54:19;22.50;49.90
7970;DHT22;4030;52.362;9.206;2022-09-30T09:56:45;22.70;49.40
7970;DHT22;4030;52.362;9.206;2022-09-30T09:59:18;22.90;48.80
7970;DHT22;4030;52.362;9.206;2022-09-30T10:01:52;23.30;48.60
7970;DHT22;4030;52.362;9.206;2022-09-30T10:06:53;23.80;48.10
7970;DHT22;4030;52.362;9.206;2022-09-30T10:14:33;24.40;47.60
7970;DHT22;4030;52.362;9.206;2022-09-30T10:17:21;24.60;47.50
7970;DHT22;4030;52.362;9.206;2022-09-30T10:19:54;24.60;47.30
7970;DHT22;4030;52.362;9.206;2022-09-30T10:22:28;24.90;47.20
7970;DHT22;4030;52.362;9.206;2022-09-30T10:27:47;25.10;46.50
7970;DHT22;4030;52.362;9.206;2022-09-30T10:30:33;25.30;46.20
7970;DHT22;4030;52.362;9.206;2022-09-30T10:33:03;25.40;46.10
7970;DHT22;4030;52.362;9.206;2022-09-30T10:35:52;25.60;46.10
7970;DHT22;4030;52.362;9.206;2022-09-30T10:38:29;25.60;45.90
7970;DHT22;4030;52.362;9.206;2022-09-30T10:40:57;25.80;45.50
7970;DHT22;4030;52.362;9.206;2022-09-30T10:43:34;25.90;45.20
7970;DHT22;4030;52.362;9.206;2022-09-30T10:46:04;26.00;45.00
7970;DHT22;4030;52.362;9.206;2022-09-30T10:48:34;26.10;45.00
7970;DHT22;4030;52.362;9.206;2022-09-30T10:51:01;26.20;44.80
7970;DHT22;4030;52.362;9.206;2022-09-30T10:53:32;26.20;44.60
7970;DHT22;4030;52.362;9.206;2022-09-30T10:55:59;26.50;44.50
7970;DHT22;4030;52.362;9.206;2022-09-30T11:04:34;26.60;43.80
7970;DHT22;4030;52.362;9.206;2022-09-30T11:07:24;26.80;43.90
7970;DHT22;4030;52.362;9.206;2022-09-30T11:09:59;26.90;43.40
7970;DHT22;4030;52.362;9.206;2022-09-30T11:18:04;27.30;42.30
7970;DHT22;4030;52.362;9.206;2022-09-30T11:20:40;27.40;42.30
7970;DHT22;4030;52.362;9.206;2022-09-30T11:23:18;27.50;42.10
7970;DHT22;4030;52.362;9.206;2022-09-30T11:25:53;27.60;41.50
7970;DHT22;4030;52.362;9.206;2022-09-30T11:28:43;27.70;41.30
7970;DHT22;4030;52.362;9.206;2022-09-30T11:31:25;27.80;41.10
7970;DHT22;4030;52.362;9.206;2022-09-30T11:34:30;28.00;41.00
7970;DHT22;4030;52.362;9.206;2022-09-30T11:56:59;28.90;39.30
7970;DHT22;4030;52.362;9.206;2022-09-30T11:59:41;29.00;39.30
7970;DHT22;4030;52.362;9.206;2022-09-30T12:02:35;29.10;40.00
7970;DHT22;4030;52.362;9.206;2022-09-30T12:05:27;29.20;39.00
7970;DHT22;4030;52.362;9.206;2022-09-30T12:08:02;29.20;39.60
7970;DHT22;4030;52.362;9.206;2022-09-30T12:10:45;29.30;39.50
7970;DHT22;4030;52.362;9.206;2022-09-30T12:13:28;29.20;39.40
7970;DHT22;4030;52.362;9.206;2022-09-30T12:15:57;29.20;39.40
7970;DHT22;4030;52.362;9.206;2022-09-30T12:18:31;29.20;39.90
7970;DHT22;4030;52.362;9.206;2022-09-30T12:21:19;29.20;39.00
7970;DHT22;4030;52.362;9.206;2022-09-30T12:23:53;29.10;39.00
7970;DHT22;4030;52.362;9.206;2022-09-30T12:26:23;29.20;39.60
7970;DHT22;4030;52.362;9.206;2022-09-30T12:28:51;29.10;39.80
7970;DHT22;4030;52.362;9.206;2022-09-30T12:34:58;28.50;40.50
7970;DHT22;4030;52.362;9.206;2022-09-30T12:41:37;28.20;40.50
7970;DHT22;4030;52.362;9.206;2022-09-30T12:50:04;28.30;40.50
7970;DHT22;4030;52.362;9.206;2022-09-30T12:52:33;28.30;40.50
7970;DHT22;4030;52.362;9.206;2022-09-30T12:55:20;28.40;40.40
7970;DHT22;4030;52.362;9.206;2022-09-30T12:57:50;28.40;40.40
7970;DHT22;4030;52.362;9.206;2022-09-30T13:00:20;28.40;41.00
7970;DHT22;4030;52.362;9.206;2022-09-30T13:03:07;28.40;41.20
7970;DHT22;4030;52.362;9.206;2022-09-30T13:15:54;28.50;39.90
7970;DHT22;4030;52.362;9.206;2022-09-30T13:21:17;28.50;40.50
7970;DHT22;4030;52.362;9.206;2022-09-30T13:23:49;28.50;40.70
7970;DHT22;4030;52.362;9.206;2022-09-30T13:29:37;28.60;39.70
7970;DHT22;4030;52.362;9.206;2022-09-30T13:34:12;28.50;38.50
7970;DHT22;4030;52.362;9.206;2022-09-30T13:39:27;28.60;39.30
7970;DHT22;4030;52.362;9.206;2022-09-30T13:42:09;28.60;38.80
7970;DHT22;4030;52.362;9.206;2022-09-30T13:47:18;28.60;38.80
7970;DHT22;4030;52.362;9.206;2022-09-30T13:49:59;28.70;37.40
7970;DHT22;4030;52.362;9.206;2022-09-30T13:52:33;28.70;37.30
7970;DHT22;4030;52.362;9.206;2022-09-30T13:55:08;28.80;37.30
7970;DHT22;4030;52.362;9.206;2022-09-30T13:58:24;28.80;37.80
7970;DHT22;4030;52.362;9.206;2022-09-30T14:01:17;29.00;38.00
7970;DHT22;4030;52.362;9.206;2022-09-30T14:10:01;28.60;39.00
7970;DHT22;4030;52.362;9.206;2022-09-30T14:12:56;28.50;38.90
7970;DHT22;4030;52.362;9.206;2022-09-30T14:15:44;28.50;39.50
7970;DHT22;4030;52.362;9.206;2022-09-30T14:21:46;27.80;39.50
7970;DHT22;4030;52.362;9.206;2022-09-30T14:24:15;27.70;39.80
7970;DHT22;4030;52.362;9.206;2022-09-30T14:32:33;27.60;40.00
7970;DHT22;4030;52.362;9.206;2022-09-30T14:35:06;27.60;39.90
7970;DHT22;4030;52.362;9.206;2022-09-30T14:38:25;27.60;39.90
7970;DHT22;4030;52.362;9.206;2022-09-30T14:40:51;27.50;40.00
7970;DHT22;4030;52.362;9.206;2022-09-30T14:43:24;27.40;39.90
7970;DHT22;4030;52.362;9.206;2022-09-30T14:46:04;27.40;39.60
7970;DHT22;4030;52.362;9.206;2022-09-30T14:48:35;27.30;39.80
7970;DHT22;4030;52.362;9.206;2022-09-30T14:51:08;27.30;40.10
7970;DHT22;4030;52.362;9.206;2022-09-30T14:53:39;27.20;40.00
7970;DHT22;4030;52.362;9.206;2022-09-30T14:58:57;27.10;39.80
7970;DHT22;4030;52.362;9.206;2022-09-30T15:01:28;27.10;40.00
7970;DHT22;4030;52.362;9.206;2022-09-30T15:03:58;27.00;40.50
7970;DHT22;4030;52.362;9.206;2022-09-30T15:06:30;26.90;40.30
7970;DHT22;4030;52.362;9.206;2022-09-30T15:12:15;26.70;40.20
7970;DHT22;4030;52.362;9.206;2022-09-30T15:14:47;26.50;40.00
7970;DHT22;4030;52.362;9.206;2022-09-30T15:17:43;26.40;40.20
7970;DHT22;4030;52.362;9.206;2022-09-30T15:20:23;26.30;40.30
7970;DHT22;4030;52.362;9.206;2022-09-30T15:22:52;26.10;40.40
7970;DHT22;4030;52.362;9.206;2022-09-30T15:25:20;26.10;40.60
7970;DHT22;4030;52.362;9.206;2022-09-30T15:27:46;25.90;40.70
7970;DHT22;4030;52.362;9.206;2022-09-30T15:37:45;25.60;41.00
7970;DHT22;4030;52.362;9.206;2022-09-30T15:40:19;25.50;40.90
7970;DHT22;4030;52.362;9.206;2022-09-30T15:43:09;25.40;41.10
7970;DHT22;4030;52.362;9.206;2022-09-30T15:45:41;25.20;41.30
7970;DHT22;4030;52.362;9.206;2022-09-30T15:50:54;24.90;40.70
7970;DHT22;4030;52.362;9.206;2022-09-30T15:53:47;24.80;41.50
7970;DHT22;4030;52.362;9.206;2022-09-30T15:59:04;24.60;41.70
7970;DHT22;4030;52.362;9.206;2022-09-30T16:06:58;24.30;41.70
7970;DHT22;4030;52.362;9.206;2022-09-30T16:09:36;24.20;41.80
7970;DHT22;4030;52.362;9.206;2022-09-30T16:17:35;23.80;42.10
7970;DHT22;4030;52.362;9.206;2022-09-30T16:22:47;23.40;42.30
7970;DHT22;4030;52.362;9.206;2022-09-30T16:30:23;23.00;42.60
7970;DHT22;4030;52.362;9.206;2022-09-30T16:32:52;22.90;42.80
7970;DHT22;4030;52.362;9.206;2022-09-30T16:35:21;22.80;42.90
7970;DHT22;4030;52.362;9.206;2022-09-30T16:37:50;22.60;42.90
7970;DHT22;4030;52.362;9.206;2022-09-30T16:40:25;22.50;43.10
7970;DHT22;4030;52.362;9.206;2022-09-30T16:42:53;22.40;43.30
7970;DHT22;4030;52.362;9.206;2022-09-30T16:45:24;22.30;43.50
7970;DHT22;4030;52.362;9.206;2022-09-30T16:47:51;22.20;43.50
7970;DHT22;4030;52.362;9.206;2022-09-30T16:50:24;22.00;43.50
7970;DHT22;4030;52.362;9.206;2022-09-30T16:52:54;22.00;43.80
7970;DHT22;4030;52.362;9.206;2022-09-30T16:57:48;21.80;43.90
7970;DHT22;4030;52.362;9.206;2022-09-30T17:00:14;21.70;44.00
7970;DHT22;4030;52.362;9.206;2022-09-30T17:02:46;21.60;44.10
7970;DHT22;4030;52.362;9.206;2022-09-30T17:05:18;21.40;44.10
7970;DHT22;4030;52.362;9.206;2022-09-30T17:07:46;21.40;44.30
7970;DHT22;4030;52.362;9.206;2022-09-30T17:10:24;21.30;44.40
7970;DHT22;4030;52.362;9.206;2022-09-30T17:15:19;21.10;44.60
7970;DHT22;4030;52.362;9.206;2022-09-30T17:17:45;21.10;44.80
7970;DHT22;4030;52.362;9.206;2022-09-30T17:20:11;21.00;44.90
7970;DHT22;4030;52.362;9.206;2022-09-30T17:22:38;21.00;45.10
7970;DHT22;4030;52.362;9.206;2022-09-30T17:25:04;20.80;45.20
7970;DHT22;4030;52.362;9.206;2022-09-30T17:39:40;20.30;45.60
7970;DHT22;4030;52.362;9.206;2022-09-30T17:42:12;20.30;45.80
7970;DHT22;4030;52.362;9.206;2022-09-30T17:54:42;20.00;46.20
7970;DHT22;4030;52.362;9.206;2022-09-30T17:57:08;19.90;46.20
7970;DHT22;4030;52.362;9.206;2022-09-30T17:59:33;19.90;46.40
7970;DHT22;4030;52.362;9.206;2022-09-30T18:01:59;19.70;46.30
7970;DHT22;4030;52.362;9.206;2022-09-30T18:06:52;19.70;46.80
7970;DHT22;4030;52.362;9.206;2022-09-30T18:09:18;19.60;46.90
7970;DHT22;4030;52.362;9.206;2022-09-30T18:11:44;19.70;47.10
7970;DHT22;4030;52.362;9.206;2022-09-30T18:14:11;19.60;47.20
7970;DHT22;4030;52.362;9.206;2022-09-30T18:16:37;19.50;47.10
7970;DHT22;4030;52.362;9.206;2022-09-30T18:19:05;19.30;47.10
7970;DHT22;4030;52.362;9.206;2022-09-30T18:21:32;19.30;47.30
7970;DHT22;4030;52.362;9.206;2022-09-30T18:23:59;19.20;47.20
7970;DHT22;4030;52.362;9.206;2022-09-30T18:26:26;19.20;47.20
7970;DHT22;4030;52.362;9.206;2022-09-30T18:28:53;19.20;47.20
7970;DHT22;4030;52.362;9.206;2022-09-30T18:31:21;19.20;47.30
7970;DHT22;4030;52.362;9.206;2022-09-30T18:33:54;18.90;47.00
7970;DHT22;4030;52.362;9.206;2022-09-30T18:36:20;19.00;47.20
7970;DHT22;4030;52.362;9.206;2022-09-30T18:41:12;18.90;47.10
7970;DHT22;4030;52.362;9.206;2022-09-30T18:43:40;18.90;47.10
7970;DHT22;4030;52.362;9.206;2022-09-30T18:46:05;18.80;47.00
7970;DHT22;4030;52.362;9.206;2022-09-30T18:48:33;19.00;47.20
7970;DHT22;4030;52.362;9.206;2022-09-30T18:51:03;18.70;47.00
7970;DHT22;4030;52.362;9.206;2022-09-30T18:53:31;18.60;47.00
7970;DHT22;4030;52.362;9.206;2022-09-30T18:56:02;18.70;47.10
7970;DHT22;4030;52.362;9.206;2022-09-30T19:00:59;18.50;47.10
7970;DHT22;4030;52.362;9.206;2022-09-30T19:03:28;18.50;47.00
7970;DHT22;4030;52.362;9.206;2022-09-30T19:05:55;18.60;47.30
7970;DHT22;4030;52.362;9.206;2022-09-30T19:08:22;18.50;47.20
7970;DHT22;4030;52.362;9.206;2022-09-30T19:10:48;18.30;47.00
7970;DHT22;4030;52.362;9.206;2022-09-30T19:13:15;18.60;47.30
7970;DHT22;4030;52.362;9.206;2022-09-30T19:15:40;18.20;47.00
7970;DHT22;4030;52.362;9.206;2022-09-30T19:18:06;18.30;47.20
7970;DHT22;4030;52.362;9.206;2022-09-30T19:20:36;18.30;47.30
7970;DHT22;4030;52.362;9.206;2022-09-30T19:23:03;18.30;47.30
7970;DHT22;4030;52.362;9.206;2022-09-30T19:25:32;18.20;47.30
7970;DHT22;4030;52.362;9.206;2022-09-30T19:27:58;18.10;47.20
7970;DHT22;4030;52.362;9.206;2022-09-30T19:30:25;18.10;47.20
7970;DHT22;4030;52.362;9.206;2022-09-30T19:32:57;18.10;47.30
7970;DHT22;4030;52.362;9.206;2022-09-30T19:35:25;18.10;47.30
7970;DHT22;4030;52.362;9.206;2022-09-30T19:37:51;18.00;47.30
7970;DHT22;4030;52.362;9.206;2022-09-30T19:40:18;17.90;47.20
7970;DHT22;4030;52.362;9.206;2022-09-30T19:42:45;18.00;47.40
7970;DHT22;4030;52.362;9.206;2022-09-30T19:45:11;17.90;47.40
7970;DHT22;4030;52.362;9.206;2022-09-30T19:47:37;17.80;47.30
7970;DHT22;4030;52.362;9.206;2022-09-30T19:50:03;17.80;47.30
7970;DHT22;4030;52.362;9.206;2022-09-30T19:52:32;17.80;47.40
7970;DHT22;4030;52.362;9.206;2022-09-30T19:59:51;17.70;47.30
7970;DHT22;4030;52.362;9.206;2022-09-30T20:04:47;17.50;47.30
7970;DHT22;4030;52.362;9.206;2022-09-30T20:12:06;17.60;47.40
7970;DHT22;4030;52.362;9.206;2022-09-30T20:14:32;17.60;47.50
7970;DHT22;4030;52.362;9.206;2022-09-30T20:17:16;17.50;47.50
7970;DHT22;4030;52.362;9.206;2022-09-30T20:19:42;17.30;47.40
7970;DHT22;4030;52.362;9.206;2022-09-30T20:22:08;17.40;47.50
7970;DHT22;4030;52.362;9.206;2022-09-30T20:26:59;17.30;47.40
7970;DHT22;4030;52.362;9.206;2022-09-30T20:34:18;17.30;47.60
7970;DHT22;4030;52.362;9.206;2022-09-30T20:36:44;17.20;47.60
7970;DHT22;4030;52.362;9.206;2022-09-30T20:39:10;17.20;47.70
7970;DHT22;4030;52.362;9.206;2022-09-30T20:41:38;17.20;47.70
7970;DHT22;4030;52.362;9.206;2022-09-30T20:44:09;17.10;47.70
7970;DHT22;4030;52.362;9.206;2022-09-30T20:46:40;17.00;47.70
7970;DHT22;4030;52.362;9.206;2022-09-30T20:51:32;17.10;47.80
7970;DHT22;4030;52.362;9.206;2022-09-30T20:56:27;17.10;48.00
7970;DHT22;4030;52.362;9.206;2022-09-30T20:58:54;17.10;48.10
7970;DHT22;4030;52.362;9.206;2022-09-30T21:01:21;17.00;48.00
7970;DHT22;4030;52.362;9.206;2022-09-30T21:03:49;17.00;48.00
7970;DHT22;4030;52.362;9.206;2022-09-30T21:06:18;17.00;48.00
7970;DHT22;4030;52.362;9.206;2022-09-30T21:08:51;17.00;48.10
7970;DHT22;4030;52.362;9.206;2022-09-30T21:11:18;16.80;48.00
7970;DHT22;4030;52.362;9.206;2022-09-30T21:13:47;16.90;48.10
7970;DHT22;4030;52.362;9.206;2022-09-30T21:16:19;16.90;48.10
7970;DHT22;4030;52.362;9.206;2022-09-30T21:18:48;16.90;48.10
7970;DHT22;4030;52.362;9.206;2022-09-30T21:21:16;16.80;48.10
7970;DHT22;4030;52.362;9.206;2022-09-30T21:23:45;16.90;48.20
7970;DHT22;4030;52.362;9.206;2022-09-30T21:26:13;16.90;48.20
7970;DHT22;4030;52.362;9.206;2022-09-30T21:28:40;17.00;48.40
7970;DHT22;4030;52.362;9.206;2022-09-30T21:31:21;16.80;48.30
7970;DHT22;4030;52.362;9.206;2022-09-30T21:33:56;16.90;48.40
7970;DHT22;4030;52.362;9.206;2022-09-30T21:36:25;16.90;48.50
7970;DHT22;4030;52.362;9.206;2022-09-30T21:38:52;17.10;48.70
7970;DHT22;4030;52.362;9.206;2022-09-30T21:41:19;16.90;48.60
7970;DHT22;4030;52.362;9.206;2022-09-30T21:43:45;16.70;48.50
7970;DHT22;4030;52.362;9.206;2022-09-30T21:46:13;16.70;48.50
7970;DHT22;4030;52.362;9.206;2022-09-30T21:48:40;16.70;48.40
7970;DHT22;4030;52.362;9.206;2022-09-30T21:51:07;16.60;48.50
7970;DHT22;4030;52.362;9.206;2022-09-30T21:53:34;16.60;48.50
7970;DHT22;4030;52.362;9.206;2022-09-30T21:56:01;16.70;48.50
7970;DHT22;4030;52.362;9.206;2022-09-30T21:58:28;16.70;48.60
7970;DHT22;4030;52.362;9.206;2022-09-30T22:00:57;16.80;48.70